sensor_id;sensor_type;location;lat;lon;timestamp;P1;durP1;ratioP1;P2;durP2;ratioP2
19446;SDS011;9862;49.462;11.054;2023-03-11T00:01:41;1.20;;;0.90;;
19446;SDS011;9862;49.462;11.054;2023-03-11T00:04:08;0.82;;;0.75;;
19446;SDS011;9862;49.462;11.054;2023-03-11T00:06:34;1.25;;;1.05;;
19446;SDS011;9862;49.462;11.054;2023-03-11T00:09:01;1.55;;;1.00;;
19446;SDS011;9862;49.462;11.054;2023-03-11T00:11:29;2.10;;;1.00;;
19446;SDS011;9862;49.462;11.054;2023-03-11T00:13:56;1.75;;;1.05;;
19446;SDS011;9862;49.462;11.054;2023-03-11T00:16:23;1.20;;;0.90;;
19446;SDS011;9862;49.462;11.054;2023-03-11T00:18:50;1.60;;;1.13;;
19446;SDS011;9862;49.462;11.054;2023-03-11T00:21:16;2.15;;;0.93;;
19446;SDS011;9862;49.462;11.054;2023-03-11T00:23:44;0.93;;;0.85;;
19446;SDS011;9862;49.462;11.054;2023-03-11T00:26:11;1.23;;;0.60;;
19446;SDS011;9862;49.462;11.054;2023-03-11T00:28:38;1.10;;;0.85;;
19446;SDS011;9862;49.462;11.054;2023-03-11T00:31:06;0.77;;;0.57;;
19446;SDS011;9862;49.462;11.054;2023-03-11T00:33:32;1.63;;;1.05;;
19446;SDS011;9862;49.462;11.054;2023-03-11T00:35:59;1.30;;;0.98;;
19446;SDS011;9862;49.462;11.054;2023-03-11T00:38:25;1.15;;;0.88;;
19446;SDS011;9862;49.462;11.054;2023-03-11T00:40:52;1.67;;;0.85;;
19446;SDS011;9862;49.462;11.054;2023-03-11T00:43:19;1.20;;;1.10;;
19446;SDS011;9862;49.462;11.054;2023-03-11T00:45:45;0.85;;;0.77;;
19446;SDS011;9862;49.462;11.054;2023-03-11T00:48:13;1.23;;;0.90;;
19446;SDS011;9862;49.462;11.054;2023-03-11T00:50:40;0.80;;;0.80;;
19446;SDS011;9862;49.462;11.054;2023-03-11T00:53:07;1.27;;;1.10;;
19446;SDS011;9862;49.462;11.054;2023-03-11T00:55:35;1.52;;;0.70;;
19446;SDS011;9862;49.462;11.054;2023-03-11T00:58:03;0.93;;;0.82;;
19446;SDS011;9862;49.462;11.054;2023-03-11T01:00:32;1.00;;;0.90;;
19446;SDS011;9862;49.462;11.054;2023-03-11T01:02:59;0.80;;;0.80;;
19446;SDS011;9862;49.462;11.054;2023-03-11T01:05:27;1.05;;;0.95;;
19446;SDS011;9862;49.462;11.054;2023-03-11T01:07:55;1.48;;;1.10;;
19446;SDS011;9862;49.462;11.054;2023-03-11T01:10:22;1.20;;;0.90;;
19446;SDS011;9862;49.462;11.054;2023-03-11T01:12:48;0.85;;;0.85;;
19446;SDS011;9862;49.462;11.054;2023-03-11T01:15:16;1.02;;;0.63;;
19446;SDS011;9862;49.462;11.054;2023-03-11T01:17:44;1.52;;;0.98;;
19446;SDS011;9862;49.462;11.054;2023-03-11T01:20:11;1.33;;;0.85;;
19446;SDS011;9862;49.462;11.054;2023-03-11T01:22:39;0.95;;;0.65;;
19446;SDS011;9862;49.462;11.054;2023-03-11T01:25:06;0.60;;;0.60;;
19446;SDS011;9862;49.462;11.054;2023-03-11T01:27:34;0.88;;;0.60;;
19446;SDS011;9862;49.462;11.054;2023-03-11T01:30:01;0.93;;;0.85;;
19446;SDS011;9862;49.462;11.054;2023-03-11T01:32:28;1.10;;;1.00;;
19446;SDS011;9862;49.462;11.054;2023-03-11T01:34:54;0.77;;;0.70;;
19446;SDS011;9862;49.462;11.054;2023-03-11T01:37:21;0.75;;;0.70;;
19446;SDS011;9862;49.462;11.054;2023-03-11T01:39:49;0.85;;;0.80;;
19446;SDS011;9862;49.462;11.054;2023-03-11T01:42:15;1.20;;;0.90;;
19446;SDS011;9862;49.462;11.054;2023-03-11T01:44:42;0.68;;;0.68;;
19446;SDS011;9862;49.462;11.054;2023-03-11T01:49:59;1.00;;;0.90;;
19446;SDS011;9862;49.462;11.054;2023-03-11T01:52:26;1.23;;;0.90;;
19446;SDS011;9862;49.462;11.054;2023-03-11T01:54:55;1.77;;;1.00;;
19446;SDS011;9862;49.462;11.054;2023-03-11T01:57:21;1.48;;;1.10;;
19446;SDS011;9862;49.462;11.054;2023-03-11T01:59:49;1.20;;;1.10;;
19446;SDS011;9862;49.462;11.054;2023-03-11T02:02:19;1.13;;;1.00;;
19446;SDS011;9862;49.462;11.054;2023-03-11T02:04:48;2.45;;;1.30;;
19446;SDS011;9862;49.462;11.054;2023-03-11T02:07:16;0.95;;;0.88;;
19446;SDS011;9862;49.462;11.054;2023-03-11T02:09:43;1.83;;;1.17;;
19446;SDS011;9862;49.462;11.054;2023-03-11T02:12:11;1.23;;;1.05;;
19446;SDS011;9862;49.462;11.054;2023-03-11T02:14:41;0.93;;;0.88;;
19446;SDS011;9862;49.462;11.054;2023-03-11T02:17:10;2.05;;;1.10;;
19446;SDS011;9862;49.462;11.054;2023-03-11T02:19:40;1.20;;;1.10;;
19446;SDS011;9862;49.462;11.054;2023-03-11T02:22:19;1.92;;;0.95;;
19446;SDS011;9862;49.462;11.054;2023-03-11T02:24:48;1.27;;;1.10;;
19446;SDS011;9862;49.462;11.054;2023-03-11T02:27:24;1.38;;;1.00;;
19446;SDS011;9862;49.462;11.054;2023-03-11T02:29:53;1.33;;;1.10;;
19446;SDS011;9862;49.462;11.054;2023-03-11T02:32:20;1.65;;;0.93;;
19446;SDS011;9862;49.462;11.054;2023-03-11T02:34:47;1.50;;;1.30;;
19446;SDS011;9862;49.462;11.054;2023-03-11T02:37:15;1.60;;;1.05;;
19446;SDS011;9862;49.462;11.054;2023-03-11T02:39:43;2.80;;;1.00;;
19446;SDS011;9862;49.462;11.054;2023-03-11T02:42:12;1.20;;;1.10;;
19446;SDS011;9862;49.462;11.054;2023-03-11T02:44:44;1.75;;;1.20;;
19446;SDS011;9862;49.462;11.054;2023-03-11T02:47:13;1.50;;;1.25;;
19446;SDS011;9862;49.462;11.054;2023-03-11T02:49:41;1.75;;;1.20;;
19446;SDS011;9862;49.462;11.054;2023-03-11T02:52:08;1.15;;;1.05;;
19446;SDS011;9862;49.462;11.054;2023-03-11T02:54:34;1.83;;;1.13;;
19446;SDS011;9862;49.462;11.054;2023-03-11T02:57:01;1.83;;;1.10;;
19446;SDS011;9862;49.462;11.054;2023-03-11T02:59:27;1.55;;;1.10;;
19446;SDS011;9862;49.462;11.054;2023-03-11T03:01:55;1.60;;;1.30;;
19446;SDS011;9862;49.462;11.054;2023-03-11T03:04:22;1.42;;;1.00;;
19446;SDS011;9862;49.462;11.054;2023-03-11T03:06:49;2.00;;;1.60;;
19446;SDS011;9862;49.462;11.054;2023-03-11T03:09:15;1.20;;;1.10;;
19446;SDS011;9862;49.462;11.054;2023-03-11T03:11:43;1.63;;;1.25;;
19446;SDS011;9862;49.462;11.054;2023-03-11T03:14:10;1.42;;;1.17;;
19446;SDS011;9862;49.462;11.054;2023-03-11T03:16:37;1.02;;;0.93;;
19446;SDS011;9862;49.462;11.054;2023-03-11T03:19:05;1.35;;;1.10;;
19446;SDS011;9862;49.462;11.054;2023-03-11T03:21:31;1.10;;;1.00;;
19446;SDS011;9862;49.462;11.054;2023-03-11T03:23:58;1.33;;;0.90;;
19446;SDS011;9862;49.462;11.054;2023-03-11T03:26:25;4.07;;;1.15;;
19446;SDS011;9862;49.462;11.054;2023-03-11T03:28:51;1.13;;;1.02;;
19446;SDS011;9862;49.462;11.054;2023-03-11T03:31:18;1.33;;;1.13;;
19446;SDS011;9862;49.462;11.054;2023-03-11T03:33:44;1.42;;;1.30;;
19446;SDS011;9862;49.462;11.054;2023-03-11T03:36:13;2.13;;;0.93;;
19446;SDS011;9862;49.462;11.054;2023-03-11T03:38:40;2.50;;;1.20;;
19446;SDS011;9862;49.462;11.054;2023-03-11T03:41:07;0.95;;;0.90;;
19446;SDS011;9862;49.462;11.054;2023-03-11T03:43:34;4.88;;;1.77;;
19446;SDS011;9862;49.462;11.054;2023-03-11T03:46:01;1.40;;;1.20;;
19446;SDS011;9862;49.462;11.054;2023-03-11T03:48:30;1.40;;;0.90;;
19446;SDS011;9862;49.462;11.054;2023-03-11T03:51:01;3.58;;;1.30;;
19446;SDS011;9862;49.462;11.054;2023-03-11T03:53:29;1.30;;;0.98;;
19446;SDS011;9862;49.462;11.054;2023-03-11T03:55:56;1.83;;;1.23;;
19446;SDS011;9862;49.462;11.054;2023-03-11T03:58:22;1.48;;;0.85;;
19446;SDS011;9862;49.462;11.054;2023-03-11T04:00:49;2.00;;;1.00;;
19446;SDS011;9862;49.462;11.054;2023-03-11T04:03:20;0.93;;;0.90;;
19446;SDS011;9862;49.462;11.054;2023-03-11T04:05:47;1.10;;;1.05;;
19446;SDS011;9862;49.462;11.054;2023-03-11T04:08:13;0.70;;;0.70;;
19446;SDS011;9862;49.462;11.054;2023-03-11T04:10:41;1.17;;;1.08;;
19446;SDS011;9862;49.462;11.054;2023-03-11T04:13:08;4.20;;;1.02;;
19446;SDS011;9862;49.462;11.054;2023-03-11T04:15:36;0.90;;;0.88;;
19446;SDS011;9862;49.462;11.054;2023-03-11T04:18:03;0.93;;;0.77;;
19446;SDS011;9862;49.462;11.054;2023-03-11T04:20:29;1.60;;;0.93;;
19446;SDS011;9862;49.462;11.054;2023-03-11T04:22:56;0.85;;;0.85;;
19446;SDS011;9862;49.462;11.054;2023-03-11T04:25:22;2.78;;;1.23;;
19446;SDS011;9862;49.462;11.054;2023-03-11T04:27:50;2.40;;;1.30;;
19446;SDS011;9862;49.462;11.054;2023-03-11T04:30:16;1.33;;;0.90;;
19446;SDS011;9862;49.462;11.054;2023-03-11T04:32:43;2.33;;;0.93;;
19446;SDS011;9862;49.462;11.054;2023-03-11T04:35:09;4.05;;;1.10;;
19446;SDS011;9862;49.462;11.054;2023-03-11T04:37:36;3.08;;;0.98;;
19446;SDS011;9862;49.462;11.054;2023-03-11T04:40:03;4.18;;;0.88;;
19446;SDS011;9862;49.462;11.054;2023-03-11T04:42:31;1.20;;;0.77;;
19446;SDS011;9862;49.462;11.054;2023-03-11T04:44:59;2.60;;;1.00;;
19446;SDS011;9862;49.462;11.054;2023-03-11T04:47:25;2.05;;;1.00;;
19446;SDS011;9862;49.462;11.054;2023-03-11T04:49:52;1.17;;;1.00;;
19446;SDS011;9862;49.462;11.054;2023-03-11T04:52:20;1.30;;;1.20;;
19446;SDS011;9862;49.462;11.054;2023-03-11T04:54:46;4.63;;;0.85;;
19446;SDS011;9862;49.462;11.054;2023-03-11T04:57:13;1.30;;;0.90;;
19446;SDS011;9862;49.462;11.054;2023-03-11T04:59:39;1.92;;;0.80;;
19446;SDS011;9862;49.462;11.054;2023-03-11T05:02:07;1.42;;;0.98;;
19446;SDS011;9862;49.462;11.054;2023-03-11T05:04:34;3.83;;;1.02;;
19446;SDS011;9862;49.462;11.054;2023-03-11T05:07:00;2.88;;;1.17;;
19446;SDS011;9862;49.462;11.054;2023-03-11T05:09:27;1.88;;;1.13;;
19446;SDS011;9862;49.462;11.054;2023-03-11T05:11:53;1.13;;;1.02;;
19446;SDS011;9862;49.462;11.054;2023-03-11T05:14:20;2.15;;;1.17;;
19446;SDS011;9862;49.462;11.054;2023-03-11T05:16:47;0.90;;;0.90;;
19446;SDS011;9862;49.462;11.054;2023-03-11T05:19:15;4.47;;;1.08;;
19446;SDS011;9862;49.462;11.054;2023-03-11T05:21:58;1.88;;;1.15;;
19446;SDS011;9862;49.462;11.054;2023-03-11T05:24:25;1.13;;;1.00;;
19446;SDS011;9862;49.462;11.054;2023-03-11T05:26:52;2.45;;;1.17;;
19446;SDS011;9862;49.462;11.054;2023-03-11T05:29:19;1.15;;;0.90;;
19446;SDS011;9862;49.462;11.054;2023-03-11T05:31:46;2.85;;;1.13;;
19446;SDS011;9862;49.462;11.054;2023-03-11T05:34:14;2.10;;;1.13;;
19446;SDS011;9862;49.462;11.054;2023-03-11T05:36:41;3.88;;;1.00;;
19446;SDS011;9862;49.462;11.054;2023-03-11T05:39:08;1.35;;;0.98;;
19446;SDS011;9862;49.462;11.054;2023-03-11T05:41:35;1.63;;;1.08;;
19446;SDS011;9862;49.462;11.054;2023-03-11T05:44:02;1.48;;;1.10;;
19446;SDS011;9862;49.462;11.054;2023-03-11T05:46:28;2.58;;;1.20;;
19446;SDS011;9862;49.462;11.054;2023-03-11T05:48:56;1.60;;;1.17;;
19446;SDS011;9862;49.462;11.054;2023-03-11T05:51:25;2.95;;;1.02;;
19446;SDS011;9862;49.462;11.054;2023-03-11T05:53:52;1.55;;;0.98;;
19446;SDS011;9862;49.462;11.054;2023-03-11T05:56:19;1.40;;;1.10;;
19446;SDS011;9862;49.462;11.054;2023-03-11T05:58:47;1.73;;;1.38;;
19446;SDS011;9862;49.462;11.054;2023-03-11T06:01:15;3.05;;;1.13;;
19446;SDS011;9862;49.462;11.054;2023-03-11T06:03:42;5.45;;;1.65;;
19446;SDS011;9862;49.462;11.054;2023-03-11T06:06:10;2.00;;;1.40;;
19446;SDS011;9862;49.462;11.054;2023-03-11T06:08:39;2.05;;;1.40;;
19446;SDS011;9862;49.462;11.054;2023-03-11T06:11:10;2.53;;;1.45;;
19446;SDS011;9862;49.462;11.054;2023-03-11T06:13:36;2.28;;;1.00;;
19446;SDS011;9862;49.462;11.054;2023-03-11T06:16:03;3.72;;;1.83;;
19446;SDS011;9862;49.462;11.054;2023-03-11T06:18:30;1.92;;;1.63;;
19446;SDS011;9862;49.462;11.054;2023-03-11T06:20:57;1.88;;;1.13;;
19446;SDS011;9862;49.462;11.054;2023-03-11T06:23:25;2.25;;;1.55;;
19446;SDS011;9862;49.462;11.054;2023-03-11T06:25:56;1.45;;;1.35;;
19446;SDS011;9862;49.462;11.054;2023-03-11T06:28:23;1.58;;;1.42;;
19446;SDS011;9862;49.462;11.054;2023-03-11T06:30:49;1.60;;;1.50;;
19446;SDS011;9862;49.462;11.054;2023-03-11T06:33:16;1.42;;;1.33;;
19446;SDS011;9862;49.462;11.054;2023-03-11T06:35:43;3.30;;;1.38;;
19446;SDS011;9862;49.462;11.054;2023-03-11T06:38:09;3.95;;;2.17;;
19446;SDS011;9862;49.462;11.054;2023-03-11T06:40:37;4.70;;;2.05;;
19446;SDS011;9862;49.462;11.054;2023-03-11T06:43:05;3.83;;;1.38;;
19446;SDS011;9862;49.462;11.054;2023-03-11T06:45:31;1.95;;;1.50;;
19446;SDS011;9862;49.462;11.054;2023-03-11T06:47:58;6.70;;;1.98;;
19446;SDS011;9862;49.462;11.054;2023-03-11T06:50:24;2.47;;;1.70;;
19446;SDS011;9862;49.462;11.054;2023-03-11T06:52:51;3.63;;;2.22;;
19446;SDS011;9862;49.462;11.054;2023-03-11T06:55:18;4.32;;;1.83;;
19446;SDS011;9862;49.462;11.054;2023-03-11T06:57:45;2.78;;;1.73;;
19446;SDS011;9862;49.462;11.054;2023-03-11T07:00:14;2.28;;;1.58;;
19446;SDS011;9862;49.462;11.054;2023-03-11T07:02:41;5.45;;;1.85;;
19446;SDS011;9862;49.462;11.054;2023-03-11T07:05:08;3.75;;;1.48;;
19446;SDS011;9862;49.462;11.054;2023-03-11T07:07:36;1.80;;;1.70;;
19446;SDS011;9862;49.462;11.054;2023-03-11T07:10:03;3.50;;;1.73;;
19446;SDS011;9862;49.462;11.054;2023-03-11T07:12:30;2.42;;;1.70;;
19446;SDS011;9862;49.462;11.054;2023-03-11T07:14:57;4.38;;;2.05;;
19446;SDS011;9862;49.462;11.054;2023-03-11T07:17:25;4.22;;;2.15;;
19446;SDS011;9862;49.462;11.054;2023-03-11T07:19:52;4.22;;;1.67;;
19446;SDS011;9862;49.462;11.054;2023-03-11T07:22:19;5.07;;;1.60;;
19446;SDS011;9862;49.462;11.054;2023-03-11T07:24:46;3.53;;;2.00;;
19446;SDS011;9862;49.462;11.054;2023-03-11T07:27:13;3.05;;;1.65;;
19446;SDS011;9862;49.462;11.054;2023-03-11T07:29:39;4.32;;;2.70;;
19446;SDS011;9862;49.462;11.054;2023-03-11T07:32:06;4.18;;;1.90;;
19446;SDS011;9862;49.462;11.054;2023-03-11T07:34:34;3.17;;;1.83;;
19446;SDS011;9862;49.462;11.054;2023-03-11T07:37:02;3.92;;;1.60;;
19446;SDS011;9862;49.462;11.054;2023-03-11T07:39:28;1.83;;;1.65;;
19446;SDS011;9862;49.462;11.054;2023-03-11T07:41:55;3.03;;;1.67;;
19446;SDS011;9862;49.462;11.054;2023-03-11T07:44:21;3.40;;;1.90;;
19446;SDS011;9862;49.462;11.054;2023-03-11T07:46:48;2.92;;;1.85;;
19446;SDS011;9862;49.462;11.054;2023-03-11T07:49:14;4.10;;;1.75;;
19446;SDS011;9862;49.462;11.054;2023-03-11T07:51:42;5.88;;;2.28;;
19446;SDS011;9862;49.462;11.054;2023-03-11T07:54:09;2.92;;;2.30;;
19446;SDS011;9862;49.462;11.054;2023-03-11T07:56:36;2.20;;;2.00;;
19446;SDS011;9862;49.462;11.054;2023-03-11T07:59:03;6.38;;;2.28;;
19446;SDS011;9862;49.462;11.054;2023-03-11T08:01:31;4.32;;;1.80;;
19446;SDS011;9862;49.462;11.054;2023-03-11T08:04:01;6.53;;;2.00;;
19446;SDS011;9862;49.462;11.054;2023-03-11T08:06:29;4.78;;;1.55;;
19446;SDS011;9862;49.462;11.054;2023-03-11T08:08:59;3.47;;;1.80;;
19446;SDS011;9862;49.462;11.054;2023-03-11T08:11:27;6.40;;;2.10;;
19446;SDS011;9862;49.462;11.054;2023-03-11T08:13:56;3.70;;;1.70;;
19446;SDS011;9862;49.462;11.054;2023-03-11T08:16:23;2.92;;;1.90;;
19446;SDS011;9862;49.462;11.054;2023-03-11T08:18:50;2.72;;;1.83;;
19446;SDS011;9862;49.462;11.054;2023-03-11T08:21:18;2.13;;;1.88;;
19446;SDS011;9862;49.462;11.054;2023-03-11T08:23:47;2.83;;;2.05;;
19446;SDS011;9862;49.462;11.054;2023-03-11T08:26:16;3.15;;;1.92;;
19446;SDS011;9862;49.462;11.054;2023-03-11T08:28:44;5.25;;;2.30;;
19446;SDS011;9862;49.462;11.054;2023-03-11T08:31:11;2.33;;;1.73;;
19446;SDS011;9862;49.462;11.054;2023-03-11T08:33:39;1.77;;;1.48;;
19446;SDS011;9862;49.462;11.054;2023-03-11T08:36:05;2.47;;;1.63;;
19446;SDS011;9862;49.462;11.054;2023-03-11T08:38:32;2.28;;;1.60;;
19446;SDS011;9862;49.462;11.054;2023-03-11T08:40:59;2.03;;;1.67;;
19446;SDS011;9862;49.462;11.054;2023-03-11T08:43:27;2.70;;;1.80;;
19446;SDS011;9862;49.462;11.054;2023-03-11T08:45:54;2.53;;;1.60;;
19446;SDS011;9862;49.462;11.054;2023-03-11T08:48:20;3.03;;;1.50;;
19446;SDS011;9862;49.462;11.054;2023-03-11T08:50:47;3.50;;;2.10;;
19446;SDS011;9862;49.462;11.054;2023-03-11T08:53:14;5.30;;;1.60;;
19446;SDS011;9862;49.462;11.054;2023-03-11T08:55:40;2.65;;;1.50;;
19446;SDS011;9862;49.462;11.054;2023-03-11T08:58:07;2.83;;;1.42;;
19446;SDS011;9862;49.462;11.054;2023-03-11T09:00:35;4.47;;;1.45;;
19446;SDS011;9862;49.462;11.054;2023-03-11T09:03:01;2.45;;;1.50;;
19446;SDS011;9862;49.462;11.054;2023-03-11T09:05:28;3.70;;;1.73;;
19446;SDS011;9862;49.462;11.054;2023-03-11T09:07:54;4.13;;;1.60;;
19446;SDS011;9862;49.462;11.054;2023-03-11T09:10:20;2.00;;;1.58;;
19446;SDS011;9862;49.462;11.054;2023-03-11T09:12:47;2.47;;;1.20;;
19446;SDS011;9862;49.462;11.054;2023-03-11T09:15:14;1.55;;;1.10;;
19446;SDS011;9862;49.462;11.054;2023-03-11T09:17:41;1.65;;;1.23;;
19446;SDS011;9862;49.462;11.054;2023-03-11T09:20:10;2.75;;;1.33;;
19446;SDS011;9862;49.462;11.054;2023-03-11T09:22:37;1.20;;;1.10;;
19446;SDS011;9862;49.462;11.054;2023-03-11T09:25:04;2.25;;;1.27;;
19446;SDS011;9862;49.462;11.054;2023-03-11T09:27:32;1.27;;;0.98;;
19446;SDS011;9862;49.462;11.054;2023-03-11T09:29:58;1.05;;;0.95;;
19446;SDS011;9862;49.462;11.054;2023-03-11T09:32:25;2.08;;;1.27;;
19446;SDS011;9862;49.462;11.054;2023-03-11T09:34:53;1.95;;;1.40;;
19446;SDS011;9862;49.462;11.054;2023-03-11T09:37:21;1.77;;;1.48;;
19446;SDS011;9862;49.462;11.054;2023-03-11T09:39:48;2.13;;;1.60;;
19446;SDS011;9862;49.462;11.054;2023-03-11T09:42:17;4.22;;;1.73;;
19446;SDS011;9862;49.462;11.054;2023-03-11T09:44:49;2.28;;;1.40;;
19446;SDS011;9862;49.462;11.054;2023-03-11T09:47:27;2.28;;;1.20;;
19446;SDS011;9862;49.462;11.054;2023-03-11T09:50:15;5.45;;;1.13;;
19446;SDS011;9862;49.462;11.054;2023-03-11T09:52:50;1.95;;;1.40;;
19446;SDS011;9862;49.462;11.054;2023-03-11T09:55:30;2.65;;;1.50;;
19446;SDS011;9862;49.462;11.054;2023-03-11T09:58:02;1.50;;;1.17;;
19446;SDS011;9862;49.462;11.054;2023-03-11T10:00:34;1.05;;;0.95;;
19446;SDS011;9862;49.462;11.054;2023-03-11T10:03:01;3.63;;;1.13;;
19446;SDS011;9862;49.462;11.054;2023-03-11T10:05:32;3.13;;;1.00;;
19446;SDS011;9862;49.462;11.054;2023-03-11T10:08:01;2.83;;;1.10;;
19446;SDS011;9862;49.462;11.054;2023-03-11T10:10:38;2.15;;;1.00;;
19446;SDS011;9862;49.462;11.054;2023-03-11T10:13:09;2.63;;;1.50;;
19446;SDS011;9862;49.462;11.054;2023-03-11T10:15:45;5.00;;;1.58;;
19446;SDS011;9862;49.462;11.054;2023-03-11T10:18:21;1.83;;;1.48;;
19446;SDS011;9862;49.462;11.054;2023-03-11T10:20:58;2.40;;;1.70;;
19446;SDS011;9862;49.462;11.054;2023-03-11T10:23:33;2.65;;;1.75;;
19446;SDS011;9862;49.462;11.054;2023-03-11T10:26:10;2.92;;;1.92;;
19446;SDS011;9862;49.462;11.054;2023-03-11T10:28:41;5.57;;;2.70;;
19446;SDS011;9862;49.462;11.054;2023-03-11T10:31:19;5.78;;;2.10;;
19446;SDS011;9862;49.462;11.054;2023-03-11T10:33:48;4.53;;;2.88;;
19446;SDS011;9862;49.462;11.054;2023-03-11T10:36:20;3.28;;;1.88;;
19446;SDS011;9862;49.462;11.054;2023-03-11T10:38:51;3.75;;;2.28;;
19446;SDS011;9862;49.462;11.054;2023-03-11T10:41:21;3.15;;;1.60;;
19446;SDS011;9862;49.462;11.054;2023-03-11T10:43:53;3.55;;;1.75;;
19446;SDS011;9862;49.462;11.054;2023-03-11T10:46:26;1.88;;;1.35;;
19446;SDS011;9862;49.462;11.054;2023-03-11T10:48:53;2.88;;;1.30;;
19446;SDS011;9862;49.462;11.054;2023-03-11T10:51:21;2.55;;;1.33;;
19446;SDS011;9862;49.462;11.054;2023-03-11T10:53:52;3.90;;;1.55;;
19446;SDS011;9862;49.462;11.054;2023-03-11T10:56:24;2.72;;;1.45;;
19446;SDS011;9862;49.462;11.054;2023-03-11T10:58:55;2.92;;;1.58;;
19446;SDS011;9862;49.462;11.054;2023-03-11T11:01:23;4.03;;;1.60;;
19446;SDS011;9862;49.462;11.054;2023-03-11T11:03:51;2.63;;;1.33;;
19446;SDS011;9862;49.462;11.054;2023-03-11T11:06:20;2.67;;;1.38;;
19446;SDS011;9862;49.462;11.054;2023-03-11T11:09:02;2.53;;;1.35;;
19446;SDS011;9862;49.462;11.054;2023-03-11T11:11:31;1.25;;;0.95;;
19446;SDS011;9862;49.462;11.054;2023-03-11T11:13:59;2.92;;;1.10;;
19446;SDS011;9862;49.462;11.054;2023-03-11T11:16:26;1.88;;;1.20;;
19446;SDS011;9862;49.462;11.054;2023-03-11T11:18:58;2.10;;;1.10;;
19446;SDS011;9862;49.462;11.054;2023-03-11T11:21:30;6.60;;;1.35;;
19446;SDS011;9862;49.462;11.054;2023-03-11T11:24:09;2.47;;;1.27;;
19446;SDS011;9862;49.462;11.054;2023-03-11T11:29:28;1.75;;;0.90;;
19446;SDS011;9862;49.462;11.054;2023-03-11T11:31:56;1.65;;;1.25;;
19446;SDS011;9862;49.462;11.054;2023-03-11T11:34:41;1.42;;;1.10;;
19446;SDS011;9862;49.462;11.054;2023-03-11T11:37:10;1.85;;;1.33;;
19446;SDS011;9862;49.462;11.054;2023-03-11T11:39:41;4.32;;;1.55;;
19446;SDS011;9862;49.462;11.054;2023-03-11T11:42:15;1.48;;;1.10;;
19446;SDS011;9862;49.462;11.054;2023-03-11T11:44:43;1.58;;;1.25;;
19446;SDS011;9862;49.462;11.054;2023-03-11T11:47:14;1.83;;;1.27;;
19446;SDS011;9862;49.462;11.054;2023-03-11T11:49:47;2.35;;;1.40;;
19446;SDS011;9862;49.462;11.054;2023-03-11T11:52:20;3.75;;;1.52;;
19446;SDS011;9862;49.462;11.054;2023-03-11T11:54:49;2.80;;;1.52;;
19446;SDS011;9862;49.462;11.054;2023-03-11T11:57:19;4.50;;;1.80;;
19446;SDS011;9862;49.462;11.054;2023-03-11T11:59:47;1.60;;;1.30;;
19446;SDS011;9862;49.462;11.054;2023-03-11T12:02:18;2.80;;;1.13;;
19446;SDS011;9862;49.462;11.054;2023-03-11T12:04:56;1.77;;;1.10;;
19446;SDS011;9862;49.462;11.054;2023-03-11T12:07:36;1.88;;;1.25;;
19446;SDS011;9862;49.462;11.054;2023-03-11T12:10:17;2.92;;;1.13;;
19446;SDS011;9862;49.462;11.054;2023-03-11T12:12:55;1.67;;;1.30;;
19446;SDS011;9862;49.462;11.054;2023-03-11T12:15:44;3.17;;;1.38;;
19446;SDS011;9862;49.462;11.054;2023-03-11T12:18:15;3.40;;;1.35;;
19446;SDS011;9862;49.462;11.054;2023-03-11T12:20:48;3.05;;;1.58;;
19446;SDS011;9862;49.462;11.054;2023-03-11T12:23:22;5.10;;;1.58;;
19446;SDS011;9862;49.462;11.054;2023-03-11T12:26:02;3.00;;;1.77;;
19446;SDS011;9862;49.462;11.054;2023-03-11T12:28:38;4.22;;;2.00;;
19446;SDS011;9862;49.462;11.054;2023-03-11T12:31:08;3.55;;;1.65;;
19446;SDS011;9862;49.462;11.054;2023-03-11T12:33:37;4.45;;;2.10;;
19446;SDS011;9862;49.462;11.054;2023-03-11T12:36:06;3.85;;;1.40;;
19446;SDS011;9862;49.462;11.054;2023-03-11T12:38:47;5.22;;;2.05;;
19446;SDS011;9862;49.462;11.054;2023-03-11T12:41:31;3.25;;;1.92;;
19446;SDS011;9862;49.462;11.054;2023-03-11T12:44:20;1.88;;;1.40;;
19446;SDS011;9862;49.462;11.054;2023-03-11T12:49:43;4.45;;;1.80;;
19446;SDS011;9862;49.462;11.054;2023-03-11T12:55:29;2.47;;;1.42;;
19446;SDS011;9862;49.462;11.054;2023-03-11T12:58:00;2.55;;;1.80;;
19446;SDS011;9862;49.462;11.054;2023-03-11T13:00:45;1.98;;;1.75;;
19446;SDS011;9862;49.462;11.054;2023-03-11T13:03:30;2.05;;;1.50;;
19446;SDS011;9862;49.462;11.054;2023-03-11T13:06:12;2.67;;;1.63;;
19446;SDS011;9862;49.462;11.054;2023-03-11T13:08:48;2.05;;;1.45;;
19446;SDS011;9862;49.462;11.054;2023-03-11T13:11:27;3.03;;;1.75;;
19446;SDS011;9862;49.462;11.054;2023-03-11T13:14:08;10.55;;;2.38;;
19446;SDS011;9862;49.462;11.054;2023-03-11T13:16:52;2.33;;;1.50;;
19446;SDS011;9862;49.462;11.054;2023-03-11T13:30:53;3.05;;;1.70;;
19446;SDS011;9862;49.462;11.054;2023-03-11T13:33:36;1.88;;;1.30;;
19446;SDS011;9862;49.462;11.054;2023-03-11T13:36:20;2.38;;;1.77;;
19446;SDS011;9862;49.462;11.054;2023-03-11T13:42:07;7.45;;;4.47;;
19446;SDS011;9862;49.462;11.054;2023-03-11T13:44:43;1.67;;;1.42;;
19446;SDS011;9862;49.462;11.054;2023-03-11T13:47:12;3.50;;;1.55;;
19446;SDS011;9862;49.462;11.054;2023-03-11T13:49:42;1.60;;;1.50;;
19446;SDS011;9862;49.462;11.054;2023-03-11T13:52:16;3.05;;;1.40;;
19446;SDS011;9862;49.462;11.054;2023-03-11T13:54:51;4.38;;;1.60;;
19446;SDS011;9862;49.462;11.054;2023-03-11T13:57:25;2.55;;;1.60;;
19446;SDS011;9862;49.462;11.054;2023-03-11T13:59:56;3.88;;;1.50;;
19446;SDS011;9862;49.462;11.054;2023-03-11T14:02:24;3.75;;;1.60;;
19446;SDS011;9862;49.462;11.054;2023-03-11T14:04:53;5.13;;;2.20;;
19446;SDS011;9862;49.462;11.054;2023-03-11T14:07:24;3.67;;;1.80;;
19446;SDS011;9862;49.462;11.054;2023-03-11T14:12:45;1.65;;;1.20;;
19446;SDS011;9862;49.462;11.054;2023-03-11T14:15:14;2.78;;;1.55;;
19446;SDS011;9862;49.462;11.054;2023-03-11T14:17:45;4.07;;;1.65;;
19446;SDS011;9862;49.462;11.054;2023-03-11T14:20:13;2.28;;;1.67;;
19446;SDS011;9862;49.462;11.054;2023-03-11T14:22:44;8.23;;;1.92;;
19446;SDS011;9862;49.462;11.054;2023-03-11T14:25:15;4.10;;;1.92;;
19446;SDS011;9862;49.462;11.054;2023-03-11T14:27:45;3.78;;;1.85;;
19446;SDS011;9862;49.462;11.054;2023-03-11T14:30:19;3.20;;;2.17;;
19446;SDS011;9862;49.462;11.054;2023-03-11T14:32:54;2.28;;;2.00;;
19446;SDS011;9862;49.462;11.054;2023-03-11T14:35:25;3.95;;;1.63;;
19446;SDS011;9862;49.462;11.054;2023-03-11T14:37:52;2.38;;;1.58;;
19446;SDS011;9862;49.462;11.054;2023-03-11T14:40:21;2.25;;;1.48;;
19446;SDS011;9862;49.462;11.054;2023-03-11T14:42:49;3.33;;;1.85;;
19446;SDS011;9862;49.462;11.054;2023-03-11T14:45:20;2.65;;;1.40;;
19446;SDS011;9862;49.462;11.054;2023-03-11T14:47:49;3.85;;;1.90;;
19446;SDS011;9862;49.462;11.054;2023-03-11T14:50:22;2.33;;;1.77;;
19446;SDS011;9862;49.462;11.054;2023-03-11T14:52:51;2.92;;;1.67;;
19446;SDS011;9862;49.462;11.054;2023-03-11T14:55:21;2.05;;;1.60;;
19446;SDS011;9862;49.462;11.054;2023-03-11T14:57:51;4.38;;;1.83;;
19446;SDS011;9862;49.462;11.054;2023-03-11T15:00:22;3.08;;;1.70;;
19446;SDS011;9862;49.462;11.054;2023-03-11T15:02:58;4.90;;;1.52;;
19446;SDS011;9862;49.462;11.054;2023-03-11T15:05:31;5.60;;;1.73;;
19446;SDS011;9862;49.462;11.054;2023-03-11T15:08:02;3.70;;;1.70;;
19446;SDS011;9862;49.462;11.054;2023-03-11T15:10:31;1.50;;;1.40;;
19446;SDS011;9862;49.462;11.054;2023-03-11T15:13:06;5.60;;;1.85;;
19446;SDS011;9862;49.462;11.054;2023-03-11T15:15:36;2.25;;;1.60;;
19446;SDS011;9862;49.462;11.054;2023-03-11T15:18:14;3.10;;;1.42;;
19446;SDS011;9862;49.462;11.054;2023-03-11T15:20:47;1.38;;;1.27;;
19446;SDS011;9862;49.462;11.054;2023-03-11T15:23:27;4.47;;;1.60;;
19446;SDS011;9862;49.462;11.054;2023-03-11T15:25:54;2.03;;;1.30;;
19446;SDS011;9862;49.462;11.054;2023-03-11T15:28:21;7.50;;;1.90;;
19446;SDS011;9862;49.462;11.054;2023-03-11T15:30:50;2.78;;;1.17;;